sensor_id;sensor_type;location;lat;lon;timestamp;P1;durP1;ratioP1;P2;durP2;ratioP2
11269;SDS011;5692;48.956;9.200;2022-09-27T00:00:27;177.15;;;168.65;;
11269;SDS011;5692;48.956;9.200;2022-09-27T00:02:53;163.52;;;155.73;;
11269;SDS011;5692;48.956;9.200;2022-09-27T00:05:19;172.00;;;163.77;;
11269;SDS011;5692;48.956;9.200;2022-09-27T00:07:45;167.98;;;159.93;;
11269;SDS011;5692;48.956;9.200;2022-09-27T00:10:11;177.88;;;169.38;;
11269;SDS011;5692;48.956;9.200;2022-09-27T00:12:37;186.80;;;177.88;;
11269;SDS011;5692;48.956;9.200;2022-09-27T00:15:04;178.00;;;169.50;;
11269;SDS011;5692;48.956;9.200;2022-09-27T00:17:31;177.77;;;169.27;;
11269;SDS011;5692;48.956;9.200;2022-09-27T00:19:57;172.88;;;164.57;;
11269;SDS011;5692;48.956;9.200;2022-09-27T00:22:24;184.20;;;175.40;;
11269;SDS011;5692;48.956;9.200;2022-09-27T00:24:50;174.77;;;166.43;;
11269;SDS011;5692;48.956;9.200;2022-09-27T00:27:17;187.68;;;178.68;;
11269;SDS011;5692;48.956;9.200;2022-09-27T00:29:43;187.82;;;178.82;;
11269;SDS011;5692;48.956;9.200;2022-09-27T00:32:09;191.27;;;182.13;;
11269;SDS011;5692;48.956;9.200;2022-09-27T00:34:35;177.35;;;168.85;;
11269;SDS011;5692;48.956;9.200;2022-09-27T00:37:01;185.68;;;176.77;;
11269;SDS011;5692;48.956;9.200;2022-09-27T00:39:27;192.35;;;183.15;;
11269;SDS011;5692;48.956;9.200;2022-09-27T00:41:53;194.73;;;185.43;;
11269;SDS011;5692;48.956;9.200;2022-09-27T00:51:55;203.15;;;193.43;;
11269;SDS011;5692;48.956;9.200;2022-09-27T00:54:23;175.93;;;167.52;;
11269;SDS011;5692;48.956;9.200;2022-09-27T00:56:50;164.68;;;156.80;;
11269;SDS011;5692;48.956;9.200;2022-09-27T00:59:27;197.55;;;188.10;;
11269;SDS011;5692;48.956;9.200;2022-09-27T01:01:55;184.30;;;175.48;;
11269;SDS011;5692;48.956;9.200;2022-09-27T01:04:23;195.30;;;185.95;;
11269;SDS011;5692;48.956;9.200;2022-09-27T01:06:50;193.10;;;183.88;;
11269;SDS011;5692;48.956;9.200;2022-09-27T01:09:16;195.95;;;186.55;;
11269;SDS011;5692;48.956;9.200;2022-09-27T01:16:45;177.65;;;169.15;;
11269;SDS011;5692;48.956;9.200;2022-09-27T01:22:01;187.70;;;178.73;;
11269;SDS011;5692;48.956;9.200;2022-09-27T01:27:18;175.50;;;167.10;;
11269;SDS011;5692;48.956;9.200;2022-09-27T01:32:34;174.43;;;166.07;;
11269;SDS011;5692;48.956;9.200;2022-09-27T01:35:03;181.45;;;172.75;;
11269;SDS011;5692;48.956;9.200;2022-09-27T01:45:03;188.48;;;179.45;;
11269;SDS011;5692;48.956;9.200;2022-09-27T01:47:34;177.30;;;168.80;;
11269;SDS011;5692;48.956;9.200;2022-09-27T01:50:03;186.73;;;177.82;;
11269;SDS011;5692;48.956;9.200;2022-09-27T01:52:32;180.02;;;171.43;;
11269;SDS011;5692;48.956;9.200;2022-09-27T01:55:00;172.30;;;164.02;;
11269;SDS011;5692;48.956;9.200;2022-09-27T01:57:30;172.43;;;164.13;;
11269;SDS011;5692;48.956;9.200;2022-09-27T01:59:59;166.30;;;158.30;;
11269;SDS011;5692;48.956;9.200;2022-09-27T02:02:27;163.57;;;155.73;;
11269;SDS011;5692;48.956;9.200;2022-09-27T02:04:55;173.18;;;164.90;;
11269;SDS011;5692;48.956;9.200;2022-09-27T02:07:23;173.90;;;165.57;;
11269;SDS011;5692;48.956;9.200;2022-09-27T02:09:57;188.80;;;179.77;;
11269;SDS011;5692;48.956;9.200;2022-09-27T02:12:25;159.52;;;151.90;;
11269;SDS011;5692;48.956;9.200;2022-09-27T02:14:53;170.88;;;162.68;;
11269;SDS011;5692;48.956;9.200;2022-09-27T02:25:12;161.63;;;153.88;;
11269;SDS011;5692;48.956;9.200;2022-09-27T02:27:43;164.55;;;156.65;;
11269;SDS011;5692;48.956;9.200;2022-09-27T02:30:13;169.38;;;161.27;;
11269;SDS011;5692;48.956;9.200;2022-09-27T02:32:40;177.50;;;169.00;;
11269;SDS011;5692;48.956;9.200;2022-09-27T02:35:17;172.55;;;164.27;;
11269;SDS011;5692;48.956;9.200;2022-09-27T02:37:44;158.82;;;151.23;;
11269;SDS011;5692;48.956;9.200;2022-09-27T02:40:10;169.68;;;161.55;;
11269;SDS011;5692;48.956;9.200;2022-09-27T02:42:37;163.52;;;155.70;;
11269;SDS011;5692;48.956;9.200;2022-09-27T02:45:04;171.18;;;162.98;;
11269;SDS011;5692;48.956;9.200;2022-09-27T02:47:34;166.90;;;158.90;;
11269;SDS011;5692;48.956;9.200;2022-09-27T02:52:36;167.83;;;159.80;;
11269;SDS011;5692;48.956;9.200;2022-09-27T03:00:19;159.07;;;151.48;;
11269;SDS011;5692;48.956;9.200;2022-09-27T03:05:32;173.75;;;165.43;;
11269;SDS011;5692;48.956;9.200;2022-09-27T03:07:58;171.32;;;163.13;;
11269;SDS011;5692;48.956;9.200;2022-09-27T03:10:25;163.48;;;155.68;;
11269;SDS011;5692;48.956;9.200;2022-09-27T03:12:51;174.18;;;165.82;;
11269;SDS011;5692;48.956;9.200;2022-09-27T03:15:18;165.10;;;157.20;;
11269;SDS011;5692;48.956;9.200;2022-09-27T03:17:45;150.27;;;143.07;;
11269;SDS011;5692;48.956;9.200;2022-09-27T03:20:11;162.68;;;154.88;;
11269;SDS011;5692;48.956;9.200;2022-09-27T03:22:37;157.60;;;150.05;;
11269;SDS011;5692;48.956;9.200;2022-09-27T03:25:05;162.68;;;154.88;;
11269;SDS011;5692;48.956;9.200;2022-09-27T03:27:31;165.45;;;157.52;;
11269;SDS011;5692;48.956;9.200;2022-09-27T03:29:57;171.45;;;163.25;;
11269;SDS011;5692;48.956;9.200;2022-09-27T03:32:23;170.30;;;162.15;;
11269;SDS011;5692;48.956;9.200;2022-09-27T03:34:50;167.18;;;159.15;;
11269;SDS011;5692;48.956;9.200;2022-09-27T03:37:18;165.45;;;157.52;;
11269;SDS011;5692;48.956;9.200;2022-09-27T03:39:44;166.70;;;158.70;;
11269;SDS011;5692;48.956;9.200;2022-09-27T03:42:10;165.27;;;157.38;;
11269;SDS011;5692;48.956;9.200;2022-09-27T03:44:36;152.82;;;145.52;;
11269;SDS011;5692;48.956;9.200;2022-09-27T03:47:02;166.57;;;158.57;;
11269;SDS011;5692;48.956;9.200;2022-09-27T03:49:28;158.07;;;150.48;;
11269;SDS011;5692;48.956;9.200;2022-09-27T03:51:56;142.50;;;135.65;;
11269;SDS011;5692;48.956;9.200;2022-09-27T03:54:22;152.13;;;144.82;;
11269;SDS011;5692;48.956;9.200;2022-09-27T03:56:49;159.90;;;152.23;;
11269;SDS011;5692;48.956;9.200;2022-09-27T03:59:16;150.55;;;143.35;;
11269;SDS011;5692;48.956;9.200;2022-09-27T04:01:42;163.85;;;156.00;;
11269;SDS011;5692;48.956;9.200;2022-09-27T04:04:10;153.50;;;146.13;;
11269;SDS011;5692;48.956;9.200;2022-09-27T04:06:36;168.88;;;160.77;;
11269;SDS011;5692;48.956;9.200;2022-09-27T04:09:02;158.93;;;151.30;;
11269;SDS011;5692;48.956;9.200;2022-09-27T04:11:28;164.23;;;156.32;;
11269;SDS011;5692;48.956;9.200;2022-09-27T04:13:54;167.55;;;159.55;;
11269;SDS011;5692;48.956;9.200;2022-09-27T04:16:21;161.13;;;153.40;;
11269;SDS011;5692;48.956;9.200;2022-09-27T04:18:47;155.65;;;148.15;;
11269;SDS011;5692;48.956;9.200;2022-09-27T04:21:13;166.13;;;158.15;;
11269;SDS011;5692;48.956;9.200;2022-09-27T04:23:39;162.13;;;154.32;;
11269;SDS011;5692;48.956;9.200;2022-09-27T04:26:05;164.38;;;156.48;;
11269;SDS011;5692;48.956;9.200;2022-09-27T04:28:31;145.75;;;138.75;;
11269;SDS011;5692;48.956;9.200;2022-09-27T04:30:57;151.57;;;144.30;;
11269;SDS011;5692;48.956;9.200;2022-09-27T04:33:23;158.80;;;151.18;;
11269;SDS011;5692;48.956;9.200;2022-09-27T04:35:50;159.73;;;152.07;;
11269;SDS011;5692;48.956;9.200;2022-09-27T04:38:34;154.05;;;146.65;;
11269;SDS011;5692;48.956;9.200;2022-09-27T04:41:00;155.65;;;148.20;;
11269;SDS011;5692;48.956;9.200;2022-09-27T04:43:27;155.32;;;147.90;;
11269;SDS011;5692;48.956;9.200;2022-09-27T04:45:53;165.35;;;157.43;;
11269;SDS011;5692;48.956;9.200;2022-09-27T04:48:19;167.98;;;159.93;;
11269;SDS011;5692;48.956;9.200;2022-09-27T04:50:45;153.23;;;145.90;;
11269;SDS011;5692;48.956;9.200;2022-09-27T04:53:14;157.60;;;150.02;;
11269;SDS011;5692;48.956;9.200;2022-09-27T04:55:44;157.98;;;150.40;;
11269;SDS011;5692;48.956;9.200;2022-09-27T04:58:11;147.13;;;140.07;;
11269;SDS011;5692;48.956;9.200;2022-09-27T05:00:37;151.90;;;144.60;;
11269;SDS011;5692;48.956;9.200;2022-09-27T05:03:03;161.68;;;153.93;;
11269;SDS011;5692;48.956;9.200;2022-09-27T05:05:29;163.13;;;155.32;;
11269;SDS011;5692;48.956;9.200;2022-09-27T05:07:55;169.05;;;160.95;;
11269;SDS011;5692;48.956;9.200;2022-09-27T05:10:21;163.30;;;155.50;;
11269;SDS011;5692;48.956;9.200;2022-09-27T05:12:47;168.77;;;160.68;;
11269;SDS011;5692;48.956;9.200;2022-09-27T05:15:13;173.52;;;165.20;;
11269;SDS011;5692;48.956;9.200;2022-09-27T05:17:39;173.95;;;165.63;;
11269;SDS011;5692;48.956;9.200;2022-09-27T05:20:05;155.68;;;148.20;;
11269;SDS011;5692;48.956;9.200;2022-09-27T05:22:31;148.93;;;141.77;;
11269;SDS011;5692;48.956;9.200;2022-09-27T05:24:58;148.00;;;140.90;;
11269;SDS011;5692;48.956;9.200;2022-09-27T05:27:24;160.77;;;153.07;;
11269;SDS011;5692;48.956;9.200;2022-09-27T05:29:50;150.55;;;143.32;;
11269;SDS011;5692;48.956;9.200;2022-09-27T05:32:16;155.10;;;147.70;;
11269;SDS011;5692;48.956;9.200;2022-09-27T05:34:42;156.98;;;149.48;;
11269;SDS011;5692;48.956;9.200;2022-09-27T05:37:08;146.60;;;139.57;;
11269;SDS011;5692;48.956;9.200;2022-09-27T05:39:34;141.88;;;135.07;;
11269;SDS011;5692;48.956;9.200;2022-09-27T05:42:00;145.20;;;138.20;;
11269;SDS011;5692;48.956;9.200;2022-09-27T05:44:28;151.20;;;143.95;;
11269;SDS011;5692;48.956;9.200;2022-09-27T05:46:59;144.82;;;137.88;;
11269;SDS011;5692;48.956;9.200;2022-09-27T05:49:28;155.50;;;148.05;;
11269;SDS011;5692;48.956;9.200;2022-09-27T05:51:56;148.85;;;141.70;;
11269;SDS011;5692;48.956;9.200;2022-09-27T05:54:22;139.70;;;133.00;;
11269;SDS011;5692;48.956;9.200;2022-09-27T05:56:48;153.02;;;145.70;;
11269;SDS011;5692;48.956;9.200;2022-09-27T05:59:15;152.32;;;145.02;;
11269;SDS011;5692;48.956;9.200;2022-09-27T06:01:44;164.80;;;156.90;;
11269;SDS011;5692;48.956;9.200;2022-09-27T06:04:10;140.68;;;133.93;;
11269;SDS011;5692;48.956;9.200;2022-09-27T06:06:38;148.45;;;141.32;;
11269;SDS011;5692;48.956;9.200;2022-09-27T06:09:04;145.30;;;138.32;;
11269;SDS011;5692;48.956;9.200;2022-09-27T06:11:30;146.13;;;139.13;;
11269;SDS011;5692;48.956;9.200;2022-09-27T06:13:59;151.23;;;143.98;;
11269;SDS011;5692;48.956;9.200;2022-09-27T06:16:25;150.75;;;143.55;;
11269;SDS011;5692;48.956;9.200;2022-09-27T06:18:51;155.63;;;148.13;;
11269;SDS011;5692;48.956;9.200;2022-09-27T06:21:17;153.35;;;146.00;;
11269;SDS011;5692;48.956;9.200;2022-09-27T06:23:44;139.23;;;132.52;;
11269;SDS011;5692;48.956;9.200;2022-09-27T06:26:11;144.73;;;137.80;;
11269;SDS011;5692;48.956;9.200;2022-09-27T06:28:37;142.20;;;135.40;;
11269;SDS011;5692;48.956;9.200;2022-09-27T06:31:04;146.60;;;139.57;;
11269;SDS011;5692;48.956;9.200;2022-09-27T06:33:31;161.57;;;153.82;;
11269;SDS011;5692;48.956;9.200;2022-09-27T06:35:59;154.30;;;146.90;;
11269;SDS011;5692;48.956;9.200;2022-09-27T06:38:25;152.52;;;145.20;;
11269;SDS011;5692;48.956;9.200;2022-09-27T06:40:51;162.82;;;155.02;;
11269;SDS011;5692;48.956;9.200;2022-09-27T06:43:18;169.35;;;161.25;;
11269;SDS011;5692;48.956;9.200;2022-09-27T06:45:44;159.30;;;151.70;;
11269;SDS011;5692;48.956;9.200;2022-09-27T06:48:11;165.23;;;157.32;;
11269;SDS011;5692;48.956;9.200;2022-09-27T06:50:39;156.40;;;148.90;;
11269;SDS011;5692;48.956;9.200;2022-09-27T06:53:06;156.23;;;148.73;;
11269;SDS011;5692;48.956;9.200;2022-09-27T06:55:34;172.85;;;164.55;;
11269;SDS011;5692;48.956;9.200;2022-09-27T06:58:00;164.10;;;156.20;;
11269;SDS011;5692;48.956;9.200;2022-09-27T07:00:47;155.40;;;147.95;;
11269;SDS011;5692;48.956;9.200;2022-09-27T07:03:14;161.27;;;153.57;;
11269;SDS011;5692;48.956;9.200;2022-09-27T07:05:40;149.90;;;142.70;;
11269;SDS011;5692;48.956;9.200;2022-09-27T07:08:07;157.50;;;149.95;;
11269;SDS011;5692;48.956;9.200;2022-09-27T07:10:35;162.00;;;154.23;;
11269;SDS011;5692;48.956;9.200;2022-09-27T07:13:02;167.63;;;159.60;;
11269;SDS011;5692;48.956;9.200;2022-09-27T07:15:29;170.07;;;161.93;;
11269;SDS011;5692;48.956;9.200;2022-09-27T07:17:56;158.02;;;150.43;;
11269;SDS011;5692;48.956;9.200;2022-09-27T07:20:23;154.52;;;147.13;;
11269;SDS011;5692;48.956;9.200;2022-09-27T07:22:49;144.48;;;137.55;;
11269;SDS011;5692;48.956;9.200;2022-09-27T07:25:15;156.80;;;149.30;;
11269;SDS011;5692;48.956;9.200;2022-09-27T07:27:41;156.75;;;149.25;;
11269;SDS011;5692;48.956;9.200;2022-09-27T07:30:07;161.52;;;153.82;;
11269;SDS011;5692;48.956;9.200;2022-09-27T07:32:34;159.70;;;152.02;;
11269;SDS011;5692;48.956;9.200;2022-09-27T07:35:01;153.25;;;145.90;;
11269;SDS011;5692;48.956;9.200;2022-09-27T07:37:27;166.63;;;158.63;;
11269;SDS011;5692;48.956;9.200;2022-09-27T07:39:53;158.90;;;151.30;;
11269;SDS011;5692;48.956;9.200;2022-09-27T07:42:20;159.13;;;151.50;;
11269;SDS011;5692;48.956;9.200;2022-09-27T07:44:46;158.82;;;151.20;;
11269;SDS011;5692;48.956;9.200;2022-09-27T07:47:12;168.55;;;160.48;;
11269;SDS011;5692;48.956;9.200;2022-09-27T07:49:38;142.38;;;135.57;;
11269;SDS011;5692;48.956;9.200;2022-09-27T07:52:04;141.07;;;134.30;;
11269;SDS011;5692;48.956;9.200;2022-09-27T07:54:30;148.43;;;141.32;;
11269;SDS011;5692;48.956;9.200;2022-09-27T07:56:59;144.05;;;137.15;;
11269;SDS011;5692;48.956;9.200;2022-09-27T07:59:27;157.75;;;150.18;;
11269;SDS011;5692;48.956;9.200;2022-09-27T08:01:53;149.77;;;142.60;;
11269;SDS011;5692;48.956;9.200;2022-09-27T08:04:20;147.38;;;140.27;;
11269;SDS011;5692;48.956;9.200;2022-09-27T08:06:46;164.20;;;156.30;;
11269;SDS011;5692;48.956;9.200;2022-09-27T08:09:12;149.48;;;142.32;;
11269;SDS011;5692;48.956;9.200;2022-09-27T08:11:38;150.90;;;143.68;;
11269;SDS011;5692;48.956;9.200;2022-09-27T08:14:04;152.18;;;144.88;;
11269;SDS011;5692;48.956;9.200;2022-09-27T08:16:33;162.65;;;154.88;;
11269;SDS011;5692;48.956;9.200;2022-09-27T08:18:59;154.52;;;147.10;;
11269;SDS011;5692;48.956;9.200;2022-09-27T08:21:28;160.73;;;153.02;;
11269;SDS011;5692;48.956;9.200;2022-09-27T08:23:55;157.20;;;149.68;;
11269;SDS011;5692;48.956;9.200;2022-09-27T08:26:21;158.00;;;150.43;;
11269;SDS011;5692;48.956;9.200;2022-09-27T08:28:47;157.20;;;149.68;;
11269;SDS011;5692;48.956;9.200;2022-09-27T08:31:13;143.00;;;136.13;;
11269;SDS011;5692;48.956;9.200;2022-09-27T08:33:39;158.13;;;150.52;;
11269;SDS011;5692;48.956;9.200;2022-09-27T08:36:11;152.65;;;145.35;;
11269;SDS011;5692;48.956;9.200;2022-09-27T08:38:38;146.13;;;139.13;;
11269;SDS011;5692;48.956;9.200;2022-09-27T08:41:06;161.10;;;153.35;;
11269;SDS011;5692;48.956;9.200;2022-09-27T08:48:35;174.10;;;165.75;;
11269;SDS011;5692;48.956;9.200;2022-09-27T08:51:03;168.48;;;160.38;;
11269;SDS011;5692;48.956;9.200;2022-09-27T08:53:36;187.48;;;178.50;;
11269;SDS011;5692;48.956;9.200;2022-09-27T08:56:03;176.68;;;168.18;;
11269;SDS011;5692;48.956;9.200;2022-09-27T08:58:33;166.05;;;158.07;;
11269;SDS011;5692;48.956;9.200;2022-09-27T09:01:03;162.48;;;154.70;;
11269;SDS011;5692;48.956;9.200;2022-09-27T09:03:34;159.30;;;151.70;;
11269;SDS011;5692;48.956;9.200;2022-09-27T09:06:10;177.00;;;168.50;;
11269;SDS011;5692;48.956;9.200;2022-09-27T09:16:47;181.20;;;172.50;;
11269;SDS011;5692;48.956;9.200;2022-09-27T09:22:18;182.85;;;174.05;;
11269;SDS011;5692;48.956;9.200;2022-09-27T09:32:44;185.57;;;176.68;;
11269;SDS011;5692;48.956;9.200;2022-09-27T09:35:13;187.32;;;178.32;;
11269;SDS011;5692;48.956;9.200;2022-09-27T09:37:44;188.73;;;179.68;;
11269;SDS011;5692;48.956;9.200;2022-09-27T09:40:19;198.50;;;189.00;;
11269;SDS011;5692;48.956;9.200;2022-09-27T09:45:17;191.35;;;182.20;;
11269;SDS011;5692;48.956;9.200;2022-09-27T09:47:56;186.82;;;177.88;;
11269;SDS011;5692;48.956;9.200;2022-09-27T09:50:28;199.50;;;189.95;;
11269;SDS011;5692;48.956;9.200;2022-09-27T09:52:56;201.55;;;191.90;;
11269;SDS011;5692;48.956;9.200;2022-09-27T09:55:25;181.02;;;172.35;;
11269;SDS011;5692;48.956;9.200;2022-09-27T10:00:21;178.45;;;169.93;;
11269;SDS011;5692;48.956;9.200;2022-09-27T10:02:48;186.40;;;177.48;;
11269;SDS011;5692;48.956;9.200;2022-09-27T10:05:18;191.35;;;182.15;;
11269;SDS011;5692;48.956;9.200;2022-09-27T10:07:45;203.90;;;194.10;;
11269;SDS011;5692;48.956;9.200;2022-09-27T10:10:12;190.30;;;181.20;;
11269;SDS011;5692;48.956;9.200;2022-09-27T10:12:40;192.27;;;183.05;;
11269;SDS011;5692;48.956;9.200;2022-09-27T10:15:13;196.13;;;186.75;;
11269;SDS011;5692;48.956;9.200;2022-09-27T10:17:40;200.68;;;191.05;;
11269;SDS011;5692;48.956;9.200;2022-09-27T10:20:07;202.30;;;192.63;;
11269;SDS011;5692;48.956;9.200;2022-09-27T10:22:42;205.95;;;196.10;;
11269;SDS011;5692;48.956;9.200;2022-09-27T10:25:09;201.48;;;191.82;;
11269;SDS011;5692;48.956;9.200;2022-09-27T10:30:04;194.43;;;185.13;;
11269;SDS011;5692;48.956;9.200;2022-09-27T10:32:32;200.20;;;190.63;;
11269;SDS011;5692;48.956;9.200;2022-09-27T10:35:18;193.02;;;183.80;;
11269;SDS011;5692;48.956;9.200;2022-09-27T10:37:45;191.68;;;182.50;;
11269;SDS011;5692;48.956;9.200;2022-09-27T10:40:25;200.73;;;191.13;;
11269;SDS011;5692;48.956;9.200;2022-09-27T10:42:51;181.30;;;172.60;;
11269;SDS011;5692;48.956;9.200;2022-09-27T10:45:33;184.20;;;175.38;;
11269;SDS011;5692;48.956;9.200;2022-09-27T10:48:00;182.45;;;173.70;;
11269;SDS011;5692;48.956;9.200;2022-09-27T10:50:27;181.48;;;172.77;;
11269;SDS011;5692;48.956;9.200;2022-09-27T10:55:27;166.82;;;158.82;;
11269;SDS011;5692;48.956;9.200;2022-09-27T10:57:56;184.98;;;176.13;;
11269;SDS011;5692;48.956;9.200;2022-09-27T11:00:25;166.55;;;158.55;;
11269;SDS011;5692;48.956;9.200;2022-09-27T11:02:53;185.40;;;176.55;;
11269;SDS011;5692;48.956;9.200;2022-09-27T11:07:54;180.35;;;171.73;;
11269;SDS011;5692;48.956;9.200;2022-09-27T11:10:28;173.10;;;164.80;;
11269;SDS011;5692;48.956;9.200;2022-09-27T11:18:11;170.10;;;161.95;;
11269;SDS011;5692;48.956;9.200;2022-09-27T11:20:45;167.75;;;159.75;;
11269;SDS011;5692;48.956;9.200;2022-09-27T11:25:40;169.90;;;161.77;;
11269;SDS011;5692;48.956;9.200;2022-09-27T11:46:46;157.65;;;150.07;;
11269;SDS011;5692;48.956;9.200;2022-09-27T11:57:01;154.93;;;147.50;;
11269;SDS011;5692;48.956;9.200;2022-09-27T12:02:23;157.25;;;149.73;;
11269;SDS011;5692;48.956;9.200;2022-09-27T12:09:55;169.00;;;160.90;;
11269;SDS011;5692;48.956;9.200;2022-09-27T12:12:24;174.27;;;165.93;;
11269;SDS011;5692;48.956;9.200;2022-09-27T12:14:55;175.63;;;167.23;;
11269;SDS011;5692;48.956;9.200;2022-09-27T12:17:25;175.00;;;166.63;;
11269;SDS011;5692;48.956;9.200;2022-09-27T12:19:53;155.30;;;147.85;;
11269;SDS011;5692;48.956;9.200;2022-09-27T12:22:20;154.32;;;146.93;;
11269;SDS011;5692;48.956;9.200;2022-09-27T12:24:48;164.68;;;156.77;;
11269;SDS011;5692;48.956;9.200;2022-09-27T12:27:16;161.18;;;153.45;;
11269;SDS011;5692;48.956;9.200;2022-09-27T12:29:43;155.05;;;147.63;;
11269;SDS011;5692;48.956;9.200;2022-09-27T12:32:13;146.95;;;139.93;;
11269;SDS011;5692;48.956;9.200;2022-09-27T12:34:49;150.32;;;143.13;;
11269;SDS011;5692;48.956;9.200;2022-09-27T12:37:26;158.55;;;150.95;;
11269;SDS011;5692;48.956;9.200;2022-09-27T12:39:56;153.95;;;146.55;;
11269;SDS011;5692;48.956;9.200;2022-09-27T12:42:46;169.88;;;161.77;;
11269;SDS011;5692;48.956;9.200;2022-09-27T12:45:14;156.80;;;149.27;;
11269;SDS011;5692;48.956;9.200;2022-09-27T12:53:00;153.95;;;146.57;;
11269;SDS011;5692;48.956;9.200;2022-09-27T12:58:31;178.47;;;169.93;;
11269;SDS011;5692;48.956;9.200;2022-09-27T13:00:57;167.88;;;159.85;;
11269;SDS011;5692;48.956;9.200;2022-09-27T13:03:39;180.95;;;172.27;;
11269;SDS011;5692;48.956;9.200;2022-09-27T13:06:27;157.80;;;150.20;;
11269;SDS011;5692;48.956;9.200;2022-09-27T13:09:05;167.00;;;159.00;;
11269;SDS011;5692;48.956;9.200;2022-09-27T13:11:43;167.77;;;159.73;;
11269;SDS011;5692;48.956;9.200;2022-09-27T13:14:15;165.60;;;157.68;;
11269;SDS011;5692;48.956;9.200;2022-09-27T13:16:43;168.00;;;159.95;;
11269;SDS011;5692;48.956;9.200;2022-09-27T13:21:55;182.07;;;173.38;;
11269;SDS011;5692;48.956;9.200;2022-09-27T13:32:33;161.75;;;154.00;;
11269;SDS011;5692;48.956;9.200;2022-09-27T13:43:04;167.50;;;159.50;;
11269;SDS011;5692;48.956;9.200;2022-09-27T13:45:27;167.63;;;159.57;;
11269;SDS011;5692;48.956;9.200;2022-09-27T13:47:56;171.63;;;163.40;;
11269;SDS011;5692;48.956;9.200;2022-09-27T13:50:23;172.90;;;164.60;;
11269;SDS011;5692;48.956;9.200;2022-09-27T13:55:36;156.25;;;148.75;;
11269;SDS011;5692;48.956;9.200;2022-09-27T13:58:08;163.75;;;155.90;;
11269;SDS011;5692;48.956;9.200;2022-09-27T14:00:38;170.20;;;162.00;;
11269;SDS011;5692;48.956;9.200;2022-09-27T14:05:40;170.02;;;161.88;;
11269;SDS011;5692;48.956;9.200;2022-09-27T14:08:14;163.45;;;155.63;;
11269;SDS011;5692;48.956;9.200;2022-09-27T14:10:45;162.68;;;154.90;;
11269;SDS011;5692;48.956;9.200;2022-09-27T14:13:11;165.65;;;157.73;;
11269;SDS011;5692;48.956;9.200;2022-09-27T14:15:41;163.73;;;155.88;;
11269;SDS011;5692;48.956;9.200;2022-09-27T14:18:09;165.65;;;157.70;;
11269;SDS011;5692;48.956;9.200;2022-09-27T14:20:42;161.70;;;153.95;;
11269;SDS011;5692;48.956;9.200;2022-09-27T14:23:17;165.25;;;157.32;;
11269;SDS011;5692;48.956;9.200;2022-09-27T14:25:44;177.38;;;168.88;;
11269;SDS011;5692;48.956;9.200;2022-09-27T14:33:34;164.60;;;156.73;;
11269;SDS011;5692;48.956;9.200;2022-09-27T14:36:00;170.65;;;162.50;;
11269;SDS011;5692;48.956;9.200;2022-09-27T14:38:45;155.18;;;147.75;;
11269;SDS011;5692;48.956;9.200;2022-09-27T14:41:12;167.40;;;159.38;;
11269;SDS011;5692;48.956;9.200;2022-09-27T14:43:43;165.25;;;157.32;;
11269;SDS011;5692;48.956;9.200;2022-09-27T14:46:22;156.27;;;148.77;;
11269;SDS011;5692;48.956;9.200;2022-09-27T14:48:50;149.32;;;142.13;;
11269;SDS011;5692;48.956;9.200;2022-09-27T14:51:18;165.70;;;157.75;;
11269;SDS011;5692;48.956;9.200;2022-09-27T14:53:46;150.70;;;143.50;;
11269;SDS011;5692;48.956;9.200;2022-09-27T14:56:16;159.60;;;151.95;;
11269;SDS011;5692;48.956;9.200;2022-09-27T14:58:43;161.50;;;153.75;;
11269;SDS011;5692;48.956;9.200;2022-09-27T15:01:17;165.50;;;157.57;;
11269;SDS011;5692;48.956;9.200;2022-09-27T15:03:44;162.85;;;155.05;;
11269;SDS011;5692;48.956;9.200;2022-09-27T15:06:10;180.30;;;171.70;;
11269;SDS011;5692;48.956;9.200;2022-09-27T15:08:37;160.45;;;152.75;;
11269;SDS011;5692;48.956;9.200;2022-09-27T15:11:03;160.90;;;153.20;;
11269;SDS011;5692;48.956;9.200;2022-09-27T15:13:31;157.57;;;150.02;;
11269;SDS011;5692;48.956;9.200;2022-09-27T15:15:57;167.75;;;159.75;;
11269;SDS011;5692;48.956;9.200;2022-09-27T15:20:56;172.98;;;164.68;;
11269;SDS011;5692;48.956;9.200;2022-09-27T15:23:26;168.30;;;160.20;;
11269;SDS011;5692;48.956;9.200;2022-09-27T15:25:56;168.90;;;160.80;;
11269;SDS011;5692;48.956;9.200;2022-09-27T15:28:23;167.88;;;159.85;;
11269;SDS011;5692;48.956;9.200;2022-09-27T15:30:55;166.10;;;158.10;;
11269;SDS011;5692;48.956;9.200;2022-09-27T15:33:22;184.88;;;176.02;;
11269;SDS011;5692;48.956;9.200;2022-09-27T15:35:49;196.13;;;186.75;;
11269;SDS011;5692;48.956;9.200;2022-09-27T15:46:22;155.32;;;147.88;;
11269;SDS011;5692;48.956;9.200;2022-09-27T15:51:37;164.38;;;156.50;;
11269;SDS011;5692;48.956;9.200;2022-09-27T15:54:04;162.80;;;155.00;;
11269;SDS011;5692;48.956;9.200;2022-09-27T15:56:30;169.73;;;161.63;;
11269;SDS011;5692;48.956;9.200;2022-09-27T15:58:57;198.80;;;189.27;;
11269;SDS011;5692;48.956;9.200;2022-09-27T16:01:23;169.60;;;161.45;;
11269;SDS011;5692;48.956;9.200;2022-09-27T16:03:49;171.40;;;163.20;;
11269;SDS011;5692;48.956;9.200;2022-09-27T16:06:15;153.98;;;146.57;;
11269;SDS011;5692;48.956;9.200;2022-09-27T16:08:42;162.93;;;155.13;;
11269;SDS011;5692;48.956;9.200;2022-09-27T16:11:11;169.27;;;161.18;;
11269;SDS011;5692;48.956;9.200;2022-09-27T16:13:40;161.80;;;154.05;;
11269;SDS011;5692;48.956;9.200;2022-09-27T16:16:09;167.18;;;159.18;;
11269;SDS011;5692;48.956;9.200;2022-09-27T16:18:39;171.30;;;163.10;;
11269;SDS011;5692;48.956;9.200;2022-09-27T16:21:05;170.38;;;162.20;;
11269;SDS011;5692;48.956;9.200;2022-09-27T16:23:31;175.35;;;166.95;;
11269;SDS011;5692;48.956;9.200;2022-09-27T16:25:57;158.32;;;150.73;;
11269;SDS011;5692;48.956;9.200;2022-09-27T16:28:23;168.73;;;160.63;;
11269;SDS011;5692;48.956;9.200;2022-09-27T16:30:51;166.68;;;158.68;;
11269;SDS011;5692;48.956;9.200;2022-09-27T16:33:25;179.43;;;170.82;;
11269;SDS011;5692;48.956;9.200;2022-09-27T16:35:51;173.85;;;165.52;;
11269;SDS011;5692;48.956;9.200;2022-09-27T16:38:19;178.15;;;169.63;;
11269;SDS011;5692;48.956;9.200;2022-09-27T16:40:45;169.18;;;161.07;;
11269;SDS011;5692;48.956;9.200;2022-09-27T16:43:11;168.35;;;160.27;;
11269;SDS011;5692;48.956;9.200;2022-09-27T16:45:37;168.07;;;160.00;;
11269;SDS011;5692;48.956;9.200;2022-09-27T16:48:03;155.48;;;148.00;;
11269;SDS011;5692;48.956;9.200;2022-09-27T16:50:29;163.18;;;155.38;;
11269;SDS011;5692;48.956;9.200;2022-09-27T16:53:14;152.55;;;145.25;;
11269;SDS011;5692;48.956;9.200;2022-09-27T16:55:40;160.82;;;153.13;;
11269;SDS011;5692;48.956;9.200;2022-09-27T16:58:06;183.95;;;175.15;;
11269;SDS011;5692;48.956;9.200;2022-09-27T17:00:32;163.50;;;155.68;;
11269;SDS011;5692;48.956;9.200;2022-09-27T17:02:59;165.57;;;157.65;;
11269;SDS011;5692;48.956;9.200;2022-09-27T17:05:25;160.38;;;152.68;;
11269;SDS011;5692;48.956;9.200;2022-09-27T17:07:51;149.77;;;142.57;;
11269;SDS011;5692;48.956;9.200;2022-09-27T17:10:18;157.63;;;150.07;;